createdAt,value
2023-02-21T00:22:29.348Z,24.08
2023-02-21T00:23:29.384Z,24.09
2023-02-21T00:24:29.399Z,24.08
2023-02-21T00:25:29.412Z,24.09
2023-02-21T00:26:29.442Z,24.09
2023-02-21T00:27:29.454Z,24.10
2023-02-21T00:28:29.500Z,24.09
2023-02-21T00:29:29.490Z,24.09
2023-02-21T00:30:29.661Z,24.09
2023-02-21T00:31:29.591Z,24.09
2023-02-21T00:32:29.603Z,24.08
2023-02-21T00:33:29.668Z,24.08
2023-02-21T00:34:29.633Z,24.09
2023-02-21T00:35:29.652Z,24.09
2023-02-21T00:36:29.670Z,24.09
2023-02-21T00:37:29.711Z,24.08
2023-02-21T00:38:29.769Z,24.08
2023-02-21T00:39:29.774Z,24.08
2023-02-21T00:40:29.804Z,24.08
2023-02-21T00:41:29.814Z,24.08
2023-02-21T00:42:29.883Z,24.09
2023-02-21T00:43:29.892Z,24.08
2023-02-21T00:44:29.917Z,24.08
2023-02-21T00:45:29.941Z,24.08
2023-02-21T00:46:29.980Z,24.08
2023-02-21T00:47:30.032Z,24.08
2023-02-21T00:48:30.023Z,24.08
2023-02-21T00:49:30.040Z,24.09
2023-02-21T00:50:30.096Z,24.08
2023-02-21T00:51:30.109Z,24.07
2023-02-21T00:52:30.119Z,24.08
2023-02-21T00:53:30.133Z,24.08
2023-02-21T00:54:30.169Z,24.08
2023-02-21T00:55:30.200Z,24.08
2023-02-21T00:56:30.213Z,24.08
2023-02-21T00:57:30.246Z,24.08
2023-02-21T00:58:30.295Z,24.08
2023-02-21T00:59:30.345Z,24.08
2023-02-21T01:00:30.352Z,24.08
2023-02-21T01:01:30.429Z,24.08
2023-02-21T01:02:30.388Z,24.08
2023-02-21T01:03:30.424Z,24.08
2023-02-21T01:04:30.655Z,24.08
2023-02-21T01:05:30.493Z,24.07
2023-02-21T01:06:30.509Z,24.08
2023-02-21T01:07:30.564Z,24.09
2023-02-21T01:08:30.568Z,24.07
2023-02-21T01:09:30.617Z,24.09
2023-02-21T01:10:30.645Z,24.08
2023-02-21T01:11:30.652Z,24.08
2023-02-21T01:12:30.688Z,24.08
2023-02-21T01:13:30.776Z,24.08
2023-02-21T01:14:30.755Z,24.08
2023-02-21T01:15:30.804Z,24.08
2023-02-21T01:16:30.790Z,24.08
2023-02-21T01:17:30.827Z,24.07
2023-02-21T01:18:30.835Z,24.07
2023-02-21T01:19:30.880Z,24.07
2023-02-21T01:20:30.903Z,24.08
2023-02-21T01:21:30.928Z,24.08
2023-02-21T01:22:30.937Z,24.07
2023-02-21T01:23:30.973Z,24.07
2023-02-21T01:24:30.979Z,24.08
2023-02-21T01:25:30.994Z,24.08
2023-02-21T01:26:31.045Z,24.08
2023-02-21T01:27:31.058Z,24.08
2023-02-21T01:28:31.112Z,24.08
2023-02-21T01:29:31.114Z,24.08
2023-02-21T01:30:31.170Z,24.08
2023-02-21T01:31:31.280Z,24.07
2023-02-21T01:32:31.194Z,24.07
2023-02-21T01:33:31.205Z,24.07
2023-02-21T01:34:31.234Z,24.08
2023-02-21T01:35:31.266Z,24.08
2023-02-21T01:36:31.288Z,24.07
2023-02-21T01:37:31.291Z,24.08
2023-02-21T01:38:31.334Z,24.08
2023-02-21T01:39:31.342Z,24.08
2023-02-21T01:40:31.361Z,24.08
2023-02-21T01:41:31.373Z,24.08
2023-02-21T01:42:31.403Z,24.08
2023-02-21T01:43:31.421Z,24.07
2023-02-21T01:44:31.487Z,24.08
2023-02-21T01:45:31.503Z,24.07
2023-02-21T01:46:31.562Z,24.08
2023-02-21T01:47:31.528Z,24.07
2023-02-21T01:48:32.161Z,24.07
2023-02-21T01:49:31.530Z,24.08
2023-02-21T01:50:31.501Z,24.08
2023-02-21T01:51:31.521Z,24.08
2023-02-21T01:52:31.465Z,24.08
2023-02-21T01:53:31.468Z,24.07
2023-02-21T01:54:31.419Z,24.08
2023-02-21T01:55:31.479Z,24.07
2023-02-21T01:56:31.353Z,24.07
2023-02-21T01:57:31.377Z,24.08
2023-02-21T01:58:31.406Z,24.07
2023-02-21T01:59:31.442Z,24.07
2023-02-21T02:00:31.480Z,24.07
2023-02-21T02:01:31.505Z,24.07
2023-02-21T02:02:31.508Z,24.06
2023-02-21T02:03:31.567Z,24.07
2023-02-21T02:04:31.602Z,24.07
2023-02-21T02:05:31.618Z,24.07
2023-02-21T02:06:31.640Z,24.07
2023-02-21T02:45:32.260Z,24.06
2023-02-21T02:46:32.283Z,24.06
2023-02-21T02:47:32.305Z,24.06
2023-02-21T02:48:32.312Z,24.06
2023-02-21T02:49:32.360Z,24.06
2023-02-21T02:50:32.364Z,24.05
2023-02-21T02:51:32.404Z,24.06
2023-02-21T02:52:32.427Z,24.06
2023-02-21T02:53:32.458Z,24.06
2023-02-21T02:54:32.472Z,24.06
2023-02-21T02:55:32.496Z,24.06
2023-02-21T02:56:32.573Z,24.05
2023-02-21T02:57:32.572Z,24.06
2023-02-21T02:58:32.603Z,24.05
2023-02-21T02:59:32.624Z,24.05
2023-02-21T03:00:32.654Z,24.06
2023-02-21T03:01:32.817Z,24.05
2023-02-21T03:02:32.724Z,24.05
2023-02-21T03:03:32.757Z,24.06
2023-02-21T03:04:32.759Z,24.05
2023-02-21T03:05:32.802Z,24.05
2023-02-21T03:06:32.963Z,24.05
2023-02-21T03:07:34.497Z,24.05
2023-02-21T03:08:32.805Z,24.05
2023-02-21T03:09:32.769Z,24.05
2023-02-21T03:10:32.742Z,24.06
2023-02-21T03:11:32.732Z,24.05
2023-02-21T03:12:32.667Z,24.05
2023-02-21T03:13:32.634Z,24.04
2023-02-21T03:14:32.616Z,24.06
2023-02-21T03:15:32.594Z,24.05
2023-02-21T03:16:32.560Z,24.05
2023-02-21T03:17:32.522Z,24.05
2023-02-21T03:18:32.470Z,24.05
2023-02-21T03:19:32.453Z,24.05
2023-02-21T03:20:32.436Z,24.05
2023-02-21T03:21:32.409Z,24.05
2023-02-21T03:22:32.379Z,24.05
2023-02-21T03:23:32.295Z,24.05
2023-02-21T03:24:32.263Z,24.06
2023-02-21T03:25:32.236Z,24.05
2023-02-21T03:26:32.207Z,24.05
2023-02-21T03:27:32.168Z,24.06
2023-02-21T03:28:32.121Z,24.06
2023-02-21T03:29:32.122Z,24.06
2023-02-21T03:30:32.146Z,24.06
2023-02-21T03:31:32.142Z,24.07
2023-02-21T03:32:32.000Z,24.06
2023-02-21T03:33:31.972Z,24.05
2023-02-21T03:34:31.946Z,24.06
2023-02-21T03:35:31.907Z,24.06
2023-02-21T03:36:31.887Z,24.06
2023-02-21T03:37:31.837Z,24.06
2023-02-21T03:38:31.815Z,24.06
2023-02-21T03:39:31.781Z,24.06
2023-02-21T03:40:31.767Z,24.06
2023-02-21T03:41:31.725Z,24.06
2023-02-21T03:42:31.717Z,24.06
2023-02-21T03:43:32.192Z,24.06
2023-02-21T03:44:31.651Z,24.06
2023-02-21T03:45:32.199Z,24.06
2023-02-21T03:46:31.622Z,24.06
2023-02-21T03:47:31.549Z,24.06
2023-02-21T03:48:32.805Z,24.06
2023-02-21T03:49:31.475Z,24.05
2023-02-21T03:50:31.439Z,24.06
2023-02-21T03:51:31.418Z,24.05
2023-02-21T03:52:31.388Z,24.06
2023-02-21T03:53:31.368Z,24.06
2023-02-21T03:54:31.396Z,24.05
2023-02-21T03:55:31.293Z,24.05
2023-02-21T03:56:41.482Z,24.06
2023-02-21T03:57:32.240Z,24.05
2023-02-21T03:58:31.227Z,24.05
2023-02-21T03:59:31.175Z,24.05
2023-02-21T04:00:31.141Z,24.05
2023-02-21T04:01:31.086Z,24.05
2023-02-21T04:02:31.049Z,24.04
2023-02-21T04:03:31.026Z,24.05
2023-02-21T04:04:31.003Z,24.05
2023-02-21T04:05:30.961Z,24.04
2023-02-21T04:06:30.930Z,24.04
2023-02-21T04:07:30.916Z,24.04
2023-02-21T04:08:30.854Z,24.04
2023-02-21T04:09:30.827Z,24.03
2023-02-21T04:10:33.978Z,24.04
2023-02-21T04:11:31.781Z,24.04
2023-02-21T04:12:30.759Z,24.04
2023-02-21T04:13:30.723Z,24.04
2023-02-21T04:14:30.699Z,24.04
2023-02-21T04:15:30.665Z,24.04
2023-02-21T04:16:30.700Z,24.04
2023-02-21T04:17:30.595Z,24.05
2023-02-21T04:18:30.568Z,24.04
2023-02-21T04:19:30.546Z,24.04
2023-02-21T04:20:30.503Z,24.04
2023-02-21T04:21:30.485Z,24.04
2023-02-21T04:22:30.449Z,24.05
2023-02-21T04:23:30.401Z,24.04
2023-02-21T04:24:30.375Z,24.05
2023-02-21T04:25:30.368Z,24.05
2023-02-21T04:26:30.305Z,24.04
2023-02-21T04:27:30.301Z,24.04
2023-02-21T04:28:30.286Z,24.05
2023-02-21T04:29:30.205Z,24.05
2023-02-21T04:30:30.232Z,24.04
2023-02-21T04:31:30.200Z,24.04
2023-02-21T04:32:30.150Z,24.04
2023-02-21T04:33:30.085Z,24.04
2023-02-21T04:34:30.048Z,24.04
2023-02-21T04:35:30.021Z,24.05
2023-02-21T04:36:29.991Z,24.04
2023-02-21T04:37:29.948Z,24.04
2023-02-21T04:38:29.941Z,24.04
2023-02-21T04:39:29.889Z,24.04
2023-02-21T04:40:29.854Z,24.04
2023-02-21T04:41:29.819Z,24.04
2023-02-21T04:42:29.806Z,24.04
2023-02-21T04:43:29.780Z,24.04
2023-02-21T04:44:29.723Z,24.04
2023-02-21T04:45:29.742Z,24.04
2023-02-21T04:46:29.659Z,24.04
2023-02-21T04:47:29.629Z,24.03
2023-02-21T04:48:29.601Z,24.04
2023-02-21T04:49:29.561Z,24.04
2023-02-21T04:50:29.527Z,24.03
2023-02-21T04:51:29.490Z,24.03
2023-02-21T04:52:29.451Z,24.04
2023-02-21T04:53:29.432Z,24.04
2023-02-21T04:54:29.399Z,24.04
2023-02-21T04:55:29.367Z,24.04
2023-02-21T04:56:29.560Z,24.04
2023-02-21T05:30:32.338Z,24.02
2023-02-21T06:45:13.140Z,24.12
2023-02-21T06:46:13.097Z,24.14
2023-02-21T06:47:13.020Z,24.15
2023-02-21T06:48:14.900Z,24.16
2023-02-21T06:49:13.021Z,24.16
2023-02-21T06:50:12.880Z,24.14
2023-02-21T06:51:13.076Z,24.13
2023-02-21T06:52:12.823Z,24.14
2023-02-21T06:53:13.232Z,24.03
2023-02-21T06:54:12.689Z,23.89
2023-02-21T06:55:12.668Z,23.67
2023-02-21T06:56:12.655Z,23.50
2023-02-21T06:57:12.680Z,23.38
2023-02-21T06:58:12.616Z,23.29
2023-02-21T06:59:12.580Z,23.15
2023-02-21T07:00:12.604Z,23.04
2023-02-21T07:01:12.597Z,22.93
2023-02-21T07:02:12.397Z,22.79
2023-02-21T07:03:12.396Z,22.66
2023-02-21T07:04:12.909Z,22.56
2023-02-21T07:05:12.363Z,22.44
2023-02-21T07:06:12.317Z,22.34
2023-02-21T07:07:12.339Z,22.22
2023-02-21T07:08:12.264Z,22.12
2023-02-21T07:09:12.276Z,22.02
2023-02-21T07:10:12.227Z,21.93
2023-02-21T07:11:12.308Z,21.87
2023-02-21T07:12:12.161Z,21.79
2023-02-21T07:13:12.150Z,21.75
2023-02-21T07:14:12.093Z,21.71
2023-02-21T07:15:13.028Z,21.66
2023-02-21T07:16:12.257Z,21.57
2023-02-21T07:17:12.025Z,21.52
2023-02-21T07:18:12.004Z,21.44
2023-02-21T07:19:12.049Z,21.35
2023-02-21T07:20:11.933Z,21.28
2023-02-21T07:21:11.951Z,21.19
2023-02-21T07:22:11.984Z,21.10
2023-02-21T07:23:11.912Z,21.03
2023-02-21T07:24:11.871Z,20.98
2023-02-21T07:25:11.894Z,20.96
2023-02-21T07:26:11.819Z,20.93
2023-02-21T07:27:11.936Z,20.92
2023-02-21T07:28:11.796Z,20.90
2023-02-21T07:29:11.828Z,20.86
2023-02-21T07:30:11.842Z,20.84
2023-02-21T07:31:11.778Z,20.80
2023-02-21T07:32:11.866Z,20.76
2023-02-21T07:33:11.684Z,20.73
2023-02-21T07:34:12.443Z,20.65
2023-02-21T08:27:10.926Z,22.72
2023-02-21T08:55:09.883Z,23.18
2023-02-21T10:51:06.477Z,23.76
2023-02-21T10:52:06.305Z,23.78
2023-02-21T10:53:06.343Z,23.80
2023-02-21T10:54:06.310Z,23.81
2023-02-21T10:55:06.316Z,23.82
2023-02-21T10:56:07.038Z,23.84
2023-02-21T10:58:06.210Z,23.89
2023-02-21T10:59:06.984Z,23.91
2023-02-21T11:00:06.221Z,23.94
2023-02-21T11:02:07.287Z,23.98
2023-02-21T11:03:05.977Z,24.00
2023-02-21T11:04:08.507Z,24.02
2023-02-21T11:05:06.261Z,24.04
2023-02-21T11:06:06.117Z,24.07
2023-02-21T11:07:06.132Z,24.08
2023-02-21T11:08:06.104Z,24.11
2023-02-21T11:09:06.013Z,24.12
2023-02-21T11:10:06.053Z,24.14
2023-02-21T11:11:06.035Z,24.15
2023-02-21T11:12:06.116Z,24.16
2023-02-21T11:13:06.086Z,24.17
2023-02-21T11:14:06.169Z,24.19
2023-02-21T11:15:06.118Z,24.21
2023-02-21T11:16:06.187Z,24.22
2023-02-21T11:17:06.179Z,24.24
2023-02-21T11:18:06.234Z,24.25
2023-02-21T11:19:06.262Z,24.26
2023-02-21T11:20:06.257Z,24.26
2023-02-21T11:21:06.496Z,24.27
2023-02-21T11:22:06.605Z,24.28
2023-02-21T11:23:06.303Z,24.29
2023-02-21T11:24:06.482Z,24.30
2023-02-21T11:25:06.374Z,24.31
2023-02-21T11:26:06.544Z,24.32
2023-02-21T11:27:06.400Z,24.33
2023-02-21T11:28:06.411Z,24.34
2023-02-21T11:29:06.436Z,24.36
2023-02-21T11:30:06.515Z,24.37
